Time;durP1;ratioP1;P1;durP2;ratioP2;P2;SDS_P1;SDS_P2;PMS_P1;PMS_P2;Temp;Humidity;BMP_temperature;BMP_pressure;BME280_temperature;BME280_humidity;BME280_pressure;Samples;Min_cycle;Max_cycle;Signal;HPM_P1;HPM_P2
2022/03/18 00:01:14;;;;;;;22.07;12.37;;;;;;;;;;5012712;28;20680;-49
2022/03/18 00:03:41;;;;;;;20.47;12.50;;;;;;;;;;5012951;28;20419;-49
2022/03/18 00:06:07;;;;;;;21.23;13.63;;;;;;;;;;5012881;28;20407;-49
2022/03/18 00:08:32;;;;;;;23.05;13.90;;;;;;;;;;5012847;28;20172;-50
2022/03/18 00:10:58;;;;;;;21.50;11.87;;;;;;;;;;5012531;28;20194;-49
2022/03/18 00:13:24;;;;;;;20.10;13.10;;;;;;;;;;5012799;28;20423;-50
2022/03/18 00:15:50;;;;;;;25.80;13.60;;;;;;;;;;5012777;28;20413;-50
2022/03/18 00:18:16;;;;;;;34.40;17.23;;;;;;;;;;5012721;28;20416;-49
2022/03/18 00:20:42;;;;;;;39.77;15.77;;;;;;;;;;5012492;28;20799;-51
2022/03/18 00:23:08;;;;;;;30.17;14.80;;;;;;;;;;5012597;28;20443;-51
2022/03/18 00:25:34;;;;;;;43.63;17.17;;;;;;;;;;5012512;28;20457;-51
2022/03/18 00:28:00;;;;;;;28.03;13.57;;;;;;;;;;5012362;28;20426;-51
2022/03/18 00:30:26;;;;;;;20.30;14.87;;;;;;;;;;5012310;28;20407;-50
2022/03/18 00:32:53;;;;;;;26.52;13.65;;;;;;;;;;5012468;28;20419;-52
2022/03/18 00:35:19;;;;;;;30.63;13.93;;;;;;;;;;5012908;28;20219;-51
2022/03/18 00:37:45;;;;;;;29.02;14.98;;;;;;;;;;5012421;28;20694;-50
2022/03/18 00:40:11;;;;;;;26.53;16.97;;;;;;;;;;5012064;28;20177;-50
2022/03/18 00:42:37;;;;;;;31.00;15.73;;;;;;;;;;5012326;28;20495;-48
2022/03/18 00:45:04;;;;;;;17.70;12.18;;;;;;;;;;5012385;28;20395;-50
2022/03/18 00:52:59;;;;;;;22.85;13.30;;;;;;;;;;5012212;28;20271;-50
2022/03/18 00:55:25;;;;;;;19.30;11.00;;;;;;;;;;5012142;28;20712;-51
2022/03/18 00:57:51;;;;;;;19.10;11.10;;;;;;;;;;5012087;28;20489;-50
2022/03/18 01:00:19;;;;;;;17.60;11.00;;;;;;;;;;5011946;28;20857;-49
2022/03/18 01:02:45;;;;;;;28.38;10.73;;;;;;;;;;5011930;28;20200;-51
2022/03/18 01:05:11;;;;;;;19.20;10.80;;;;;;;;;;5012069;28;20637;-51
2022/03/18 01:07:37;;;;;;;28.70;12.00;;;;;;;;;;5012098;28;20406;-50
2022/03/18 01:10:04;;;;;;;18.73;10.93;;;;;;;;;;5011741;28;20411;-51
2022/03/18 01:12:30;;;;;;;23.20;11.25;;;;;;;;;;5014134;28;20431;-51
2022/03/18 01:14:57;;;;;;;22.10;11.38;;;;;;;;;;5018563;28;20286;-51
2022/03/18 01:17:23;;;;;;;16.93;10.97;;;;;;;;;;5018464;28;20283;-49
2022/03/18 01:19:49;;;;;;;36.75;11.43;;;;;;;;;;5018196;28;20400;-50
2022/03/18 01:22:15;;;;;;;21.83;12.20;;;;;;;;;;5018305;28;20678;-48
2022/03/18 01:24:41;;;;;;;16.80;10.60;;;;;;;;;;5018367;28;20469;-50
2022/03/18 01:27:07;;;;;;;17.08;11.40;;;;;;;;;;5018478;28;20594;-51
2022/03/18 01:29:34;;;;;;;17.00;11.15;;;;;;;;;;5018267;28;20255;-51
2022/03/18 01:32:00;;;;;;;18.73;11.40;;;;;;;;;;5018919;28;20192;-47
2022/03/18 01:34:26;;;;;;;32.33;12.32;;;;;;;;;;5018392;28;20180;-47
2022/03/18 01:36:52;;;;;;;17.87;11.90;;;;;;;;;;5018345;28;20203;-47
2022/03/18 01:39:18;;;;;;;52.83;25.27;;;;;;;;;;5018216;28;20504;-49
2022/03/18 01:41:44;;;;;;;39.40;20.07;;;;;;;;;;5018324;28;20215;-47
2022/03/18 01:44:11;;;;;;;38.83;23.70;;;;;;;;;;5018719;28;20402;-50
2022/03/18 01:46:40;;;;;;;25.05;15.25;;;;;;;;;;5018301;28;20781;-47
2022/03/18 01:49:06;;;;;;;15.23;10.68;;;;;;;;;;5018748;28;20190;-47
2022/03/18 01:51:33;;;;;;;12.13;8.43;;;;;;;;;;5018235;28;20322;-47
2022/03/18 01:57:00;;;;;;;16.95;8.27;;;;;;;;;;4976805;28;20223;-46
2022/03/18 01:59:28;;;;;;;18.97;9.23;;;;;;;;;;5009524;28;20557;-47
2022/03/18 02:01:54;;;;;;;17.10;11.70;;;;;;;;;;5017650;28;20423;-47
2022/03/18 02:04:20;;;;;;;15.70;11.82;;;;;;;;;;5017747;28;20180;-47
2022/03/18 02:06:46;;;;;;;15.77;9.90;;;;;;;;;;5017934;28;20199;-49
2022/03/18 02:09:12;;;;;;;15.07;10.68;;;;;;;;;;5017923;28;20403;-47
2022/03/18 02:11:39;;;;;;;22.67;9.52;;;;;;;;;;5018552;28;20198;-46
2022/03/18 02:14:05;;;;;;;16.05;9.00;;;;;;;;;;5018113;28;20172;-46
2022/03/18 02:16:31;;;;;;;17.00;10.77;;;;;;;;;;5018191;28;20258;-46
2022/03/18 02:18:57;;;;;;;18.35;9.88;;;;;;;;;;5018055;28;20402;-46
2022/03/18 02:21:28;;;;;;;14.93;10.73;;;;;;;;;;5017862;28;20190;-46
2022/03/18 02:23:54;;;;;;;19.10;9.70;;;;;;;;;;5015879;28;20407;-46
2022/03/18 02:26:20;;;;;;;14.90;9.87;;;;;;;;;;5014669;28;20546;-47
2022/03/18 02:28:46;;;;;;;15.13;10.63;;;;;;;;;;5014871;28;20399;-47
2022/03/18 02:31:12;;;;;;;25.17;13.37;;;;;;;;;;5014764;28;21005;-47
2022/03/18 02:33:38;;;;;;;23.93;14.10;;;;;;;;;;5014815;28;20974;-47
2022/03/18 02:36:04;;;;;;;24.13;14.93;;;;;;;;;;5014678;28;20966;-49
2022/03/18 02:38:30;;;;;;;24.70;15.02;;;;;;;;;;5014656;28;20457;-48
2022/03/18 02:40:56;;;;;;;25.83;13.18;;;;;;;;;;5014367;28;20326;-50
2022/03/18 02:43:22;;;;;;;21.17;12.90;;;;;;;;;;5014520;28;20666;-48
2022/03/18 02:45:47;;;;;;;27.10;14.50;;;;;;;;;;5014600;28;20391;-47
2022/03/18 02:48:13;;;;;;;23.77;11.50;;;;;;;;;;5014534;28;20895;-46
2022/03/18 02:50:39;;;;;;;22.97;11.47;;;;;;;;;;5014155;28;20764;-47
2022/03/18 02:53:05;;;;;;;14.33;10.30;;;;;;;;;;5014374;28;20430;-46
2022/03/18 02:55:31;;;;;;;17.43;9.87;;;;;;;;;;5014403;28;20403;-47
2022/03/18 02:57:57;;;;;;;14.30;8.37;;;;;;;;;;5014438;28;20555;-47
2022/03/18 03:00:27;;;;;;;12.23;8.00;;;;;;;;;;5013819;28;20769;-47
2022/03/18 03:02:53;;;;;;;15.88;7.82;;;;;;;;;;5014264;28;20466;-48
2022/03/18 03:08:04;;;;;;;12.55;9.02;;;;;;;;;;5014169;28;20394;-47
2022/03/18 03:10:31;;;;;;;13.65;9.55;;;;;;;;;;5013824;28;20176;-47
2022/03/18 03:12:59;;;;;;;15.98;10.50;;;;;;;;;;5014019;28;20261;-46
2022/03/18 03:15:25;;;;;;;18.23;11.05;;;;;;;;;;5014039;28;20165;-46
2022/03/18 03:17:51;;;;;;;13.07;9.13;;;;;;;;;;5014000;28;20621;-47
2022/03/18 03:20:17;;;;;;;17.50;9.40;;;;;;;;;;5013705;28;20399;-47
2022/03/18 03:22:43;;;;;;;27.10;12.20;;;;;;;;;;5013552;28;20780;-47
2022/03/18 03:25:09;;;;;;;17.75;8.40;;;;;;;;;;5013779;28;20395;-49
2022/03/18 03:27:35;;;;;;;15.80;9.23;;;;;;;;;;5013707;28;20176;-48
2022/03/18 03:30:02;;;;;;;20.70;11.77;;;;;;;;;;5013498;28;20885;-46
2022/03/18 03:32:28;;;;;;;24.58;12.98;;;;;;;;;;5013519;28;20462;-46
2022/03/18 03:34:55;;;;;;;20.40;12.83;;;;;;;;;;5013355;28;20173;-49
2022/03/18 03:37:21;;;;;;;30.02;13.45;;;;;;;;;;5013302;28;20553;-46
2022/03/18 03:39:50;;;;;;;20.88;11.73;;;;;;;;;;5013316;28;20543;-46
2022/03/18 03:42:17;;;;;;;20.15;12.50;;;;;;;;;;5013507;28;20192;-47
2022/03/18 03:44:43;;;;;;;24.33;14.98;;;;;;;;;;5013485;28;20169;-47
2022/03/18 03:47:09;;;;;;;24.10;13.65;;;;;;;;;;5013402;28;20526;-46
2022/03/18 03:49:35;;;;;;;23.93;13.03;;;;;;;;;;5013083;28;20203;-46
2022/03/18 03:52:01;;;;;;;25.40;15.23;;;;;;;;;;5013289;28;20833;-46
2022/03/18 03:54:30;;;;;;;23.80;15.30;;;;;;;;;;5013159;28;20457;-47
2022/03/18 03:56:57;;;;;;;28.15;14.90;;;;;;;;;;5013066;28;20593;-46
2022/03/18 03:59:23;;;;;;;40.17;18.90;;;;;;;;;;5012898;28;20219;-47
2022/03/18 04:01:49;;;;;;;40.23;17.90;;;;;;;;;;5012897;28;20722;-47
2022/03/18 04:04:16;;;;;;;28.07;15.30;;;;;;;;;;5012870;28;20506;-48
2022/03/18 04:06:42;;;;;;;30.23;16.75;;;;;;;;;;5013020;28;20490;-47
2022/03/18 04:09:08;;;;;;;17.05;12.60;;;;;;;;;;5013154;28;20218;-46
2022/03/18 04:11:35;;;;;;;19.73;12.23;;;;;;;;;;5012765;28;20619;-47
2022/03/18 04:14:01;;;;;;;31.17;13.48;;;;;;;;;;5012886;28;20415;-47
2022/03/18 04:16:27;;;;;;;25.08;12.10;;;;;;;;;;5012814;28;20203;-47
2022/03/18 04:18:53;;;;;;;26.13;12.83;;;;;;;;;;5012701;28;20176;-47
2022/03/18 04:21:19;;;;;;;23.57;11.53;;;;;;;;;;4994798;28;20463;-46
2022/03/18 04:23:45;;;;;;;19.33;12.67;;;;;;;;;;5012724;28;20427;-47
2022/03/18 04:26:11;;;;;;;28.40;13.33;;;;;;;;;;5012656;28;20489;-47
2022/03/18 04:28:37;;;;;;;20.27;12.17;;;;;;;;;;5012681;28;20407;-48
2022/03/18 04:31:03;;;;;;;19.70;11.40;;;;;;;;;;5012342;28;20430;-49
2022/03/18 04:33:29;;;;;;;24.60;12.70;;;;;;;;;;5012429;28;20564;-46
2022/03/18 04:35:55;;;;;;;18.07;11.10;;;;;;;;;;5012403;28;20507;-46
2022/03/18 04:38:21;;;;;;;20.40;11.30;;;;;;;;;;5012408;28;20461;-47
2022/03/18 04:40:46;;;;;;;13.60;9.97;;;;;;;;;;5012169;28;20430;-47
2022/03/18 04:43:12;;;;;;;26.53;9.47;;;;;;;;;;5012188;28;20491;-46
2022/03/18 04:45:40;;;;;;;15.60;9.90;;;;;;;;;;5012391;28;20403;-47
2022/03/18 04:48:06;;;;;;;15.60;9.77;;;;;;;;;;5011594;28;20403;-46
2022/03/18 04:50:32;;;;;;;22.35;9.38;;;;;;;;;;5012072;28;20164;-46
2022/03/18 04:52:58;;;;;;;16.73;9.63;;;;;;;;;;5012275;28;20175;-47
2022/03/18 04:55:24;;;;;;;19.23;10.50;;;;;;;;;;5012237;28;20976;-46
2022/03/18 04:57:50;;;;;;;15.77;9.10;;;;;;;;;;5012152;28;20456;-47
2022/03/18 05:00:17;;;;;;;16.90;10.50;;;;;;;;;;5011949;28;20406;-46
2022/03/18 05:02:43;;;;;;;18.90;9.80;;;;;;;;;;5011847;28;20443;-50
2022/03/18 05:05:10;;;;;;;18.40;8.93;;;;;;;;;;5012046;28;20164;-48
2022/03/18 05:07:38;;;;;;;15.15;10.90;;;;;;;;;;5012128;28;20641;-47
2022/03/18 05:10:05;;;;;;;12.43;9.23;;;;;;;;;;5011919;28;20179;-46
2022/03/18 05:12:31;;;;;;;14.05;10.18;;;;;;;;;;5011956;28;20180;-46
2022/03/18 05:14:57;;;;;;;18.10;9.50;;;;;;;;;;5012045;28;20217;-47
2022/03/18 05:17:23;;;;;;;21.67;11.68;;;;;;;;;;5011865;28;20219;-46
2022/03/18 05:19:49;;;;;;;30.53;11.50;;;;;;;;;;5011788;28;20632;-47
2022/03/18 05:22:15;;;;;;;34.83;14.88;;;;;;;;;;5011836;28;20426;-46
2022/03/18 05:24:41;;;;;;;22.23;12.25;;;;;;;;;;5011974;28;20165;-47
2022/03/18 05:27:07;;;;;;;28.93;13.27;;;;;;;;;;5012058;28;20645;-47
2022/03/18 05:29:33;;;;;;;24.33;11.77;;;;;;;;;;5011657;28;20466;-46
2022/03/18 05:32:00;;;;;;;20.27;9.95;;;;;;;;;;5011621;28;20427;-47
2022/03/18 05:34:26;;;;;;;19.38;10.45;;;;;;;;;;5011856;28;20173;-47
2022/03/18 05:36:52;;;;;;;20.67;11.30;;;;;;;;;;5011836;28;20204;-47
2022/03/18 05:39:18;;;;;;;24.73;11.50;;;;;;;;;;5011701;28;20171;-47
2022/03/18 05:41:44;;;;;;;28.33;13.25;;;;;;;;;;5011607;28;20469;-46
2022/03/18 05:44:11;;;;;;;29.88;13.55;;;;;;;;;;5011771;28;20169;-47
2022/03/18 05:46:37;;;;;;;25.77;13.02;;;;;;;;;;5011736;28;20183;-47
2022/03/18 05:49:03;;;;;;;25.85;14.48;;;;;;;;;;5011736;28;20200;-47
2022/03/18 05:51:30;;;;;;;36.10;14.10;;;;;;;;;;5011485;28;20255;-46
2022/03/18 05:53:56;;;;;;;26.33;14.50;;;;;;;;;;5011630;28;20169;-47
2022/03/18 05:59:07;;;;;;;21.95;12.43;;;;;;;;;;5013626;28;20577;-49
2022/03/18 06:01:37;;;;;;;22.88;14.15;;;;;;;;;;5015214;28;20204;-47
2022/03/18 06:04:04;;;;;;;25.02;13.25;;;;;;;;;;5015085;28;20179;-50
2022/03/18 06:06:29;;;;;;;23.45;12.95;;;;;;;;;;5015278;28;20175;-47
2022/03/18 06:11:49;;;;;;;18.85;10.93;;;;;;;;;;5014964;28;20418;-50
2022/03/18 06:14:19;;;;;;;21.33;13.43;;;;;;;;;;5014838;28;20172;-47
2022/03/18 06:16:48;;;;;;;25.77;12.88;;;;;;;;;;5014088;28;20192;-47
2022/03/18 06:19:21;;;;;;;25.25;11.82;;;;;;;;;;5014509;28;20170;-48
2022/03/18 06:21:47;;;;;;;23.05;11.60;;;;;;;;;;5014410;28;20184;-46
2022/03/18 06:24:14;;;;;;;23.23;11.95;;;;;;;;;;5014933;28;20164;-47
2022/03/18 06:26:41;;;;;;;17.25;12.05;;;;;;;;;;5014716;28;20169;-46
2022/03/18 06:29:07;;;;;;;25.38;13.18;;;;;;;;;;5014504;28;20172;-48
2022/03/18 06:31:34;;;;;;;19.60;11.75;;;;;;;;;;5014419;28;20200;-47
2022/03/18 06:34:01;;;;;;;17.60;12.10;;;;;;;;;;5014733;28;20168;-47
2022/03/18 06:36:28;;;;;;;24.70;12.65;;;;;;;;;;5014239;28;20689;-46
2022/03/18 06:38:54;;;;;;;18.05;9.82;;;;;;;;;;5015065;28;20200;-47
2022/03/18 06:41:20;;;;;;;20.33;10.73;;;;;;;;;;5014171;28;20227;-47
2022/03/18 06:43:47;;;;;;;13.97;9.40;;;;;;;;;;5014272;28;20169;-47
2022/03/18 06:46:14;;;;;;;16.67;9.40;;;;;;;;;;5016752;28;20912;-47
2022/03/18 06:48:41;;;;;;;13.40;8.90;;;;;;;;;;5013556;28;20417;-47
2022/03/18 06:51:07;;;;;;;10.93;8.67;;;;;;;;;;5013868;28;20429;-47
2022/03/18 06:53:34;;;;;;;15.90;8.63;;;;;;;;;;5014164;28;20404;-50
2022/03/18 06:56:00;;;;;;;10.70;8.20;;;;;;;;;;5013833;28;20408;-47
2022/03/18 06:58:27;;;;;;;14.23;8.20;;;;;;;;;;5013899;28;20400;-48
2022/03/18 07:00:54;;;;;;;15.70;9.40;;;;;;;;;;5013623;28;20420;-48
2022/03/18 07:03:23;;;;;;;12.30;9.00;;;;;;;;;;5013611;28;20901;-47
2022/03/18 07:05:49;;;;;;;15.90;8.90;;;;;;;;;;5013817;28;20401;-50
2022/03/18 07:08:15;;;;;;;15.13;9.60;;;;;;;;;;5013735;28;20415;-50
2022/03/18 07:10:41;;;;;;;11.80;8.40;;;;;;;;;;4994240;28;20486;-53
2022/03/18 07:13:07;;;;;;;13.90;8.57;;;;;;;;;;5012728;28;20448;-47
2022/03/18 07:15:33;;;;;;;14.20;8.93;;;;;;;;;;5012668;28;20881;-47
2022/03/18 07:17:59;;;;;;;14.13;8.30;;;;;;;;;;5013422;28;20433;-47
2022/03/18 07:20:26;;;;;;;10.30;7.77;;;;;;;;;;5013540;28;20379;-48
2022/03/18 07:23:08;;;;;;;8.70;7.40;;;;;;;;;;5013903;28;20907;-50
2022/03/18 07:25:37;;;;;;;13.77;8.60;;;;;;;;;;5014139;28;20371;-51
2022/03/18 07:28:05;;;;;;;9.37;7.30;;;;;;;;;;5016041;28;20424;-52
2022/03/18 07:30:31;;;;;;;9.03;8.10;;;;;;;;;;5013706;28;20967;-49
2022/03/18 07:32:57;;;;;;;14.40;7.70;;;;;;;;;;5010575;28;20421;-49
2022/03/18 07:35:23;;;;;;;12.90;7.40;;;;;;;;;;5013602;28;20839;-51
2022/03/18 07:37:49;;;;;;;13.57;6.70;;;;;;;;;;5013502;28;20458;-51
2022/03/18 07:40:18;;;;;;;12.60;7.10;;;;;;;;;;5013402;28;20430;-49
2022/03/18 07:42:46;;;;;;;8.87;7.10;;;;;;;;;;5013396;28;20791;-49
2022/03/18 07:45:13;;;;;;;17.07;7.80;;;;;;;;;;5013331;28;20409;-51
2022/03/18 07:47:41;;;;;;;18.33;8.60;;;;;;;;;;5013777;28;20406;-49
2022/03/18 07:50:07;;;;;;;14.93;8.87;;;;;;;;;;5013420;28;20430;-48
2022/03/18 07:52:36;;;;;;;12.80;8.97;;;;;;;;;;5012634;28;20515;-49
2022/03/18 07:55:02;;;;;;;16.93;8.00;;;;;;;;;;5013308;28;20431;-50
2022/03/18 07:57:28;;;;;;;15.80;9.00;;;;;;;;;;5013128;28;20864;-49
2022/03/18 07:59:54;;;;;;;19.67;8.73;;;;;;;;;;5013180;28;20400;-49
2022/03/18 08:02:20;;;;;;;15.53;9.30;;;;;;;;;;5011100;28;20448;-49
2022/03/18 08:04:47;;;;;;;17.17;7.90;;;;;;;;;;5013058;28;20406;-50
2022/03/18 08:07:13;;;;;;;17.30;8.00;;;;;;;;;;5014609;28;20432;-50
2022/03/18 08:09:39;;;;;;;11.63;8.00;;;;;;;;;;5013394;28;20814;-51
2022/03/18 08:12:06;;;;;;;13.30;7.83;;;;;;;;;;5012804;28;20510;-51
2022/03/18 08:14:32;;;;;;;12.80;8.47;;;;;;;;;;5011906;28;20427;-49
2022/03/18 08:16:58;;;;;;;13.77;6.87;;;;;;;;;;5015032;28;20457;-50
2022/03/18 08:19:24;;;;;;;10.53;7.43;;;;;;;;;;5012099;28;20433;-51
2022/03/18 08:21:50;;;;;;;12.53;6.73;;;;;;;;;;5011504;28;20403;-49
2022/03/18 08:24:17;;;;;;;8.37;7.40;;;;;;;;;;5012003;28;20779;-49
2022/03/18 08:26:43;;;;;;;9.60;6.50;;;;;;;;;;5012333;28;20437;-49
2022/03/18 08:29:08;;;;;;;11.30;6.00;;;;;;;;;;5011956;28;20464;-49
2022/03/18 08:31:36;;;;;;;14.13;6.47;;;;;;;;;;5012028;28;20486;-51
2022/03/18 08:34:02;;;;;;;9.23;6.23;;;;;;;;;;5012100;28;20434;-48
2022/03/18 08:36:28;;;;;;;7.63;5.60;;;;;;;;;;5011639;28;20504;-49
2022/03/18 08:38:54;;;;;;;11.73;6.37;;;;;;;;;;5012607;28;20420;-49
2022/03/18 08:41:20;;;;;;;11.03;6.37;;;;;;;;;;5011873;28;21008;-51
2022/03/18 08:43:46;;;;;;;6.93;5.67;;;;;;;;;;5012351;28;20463;-49
2022/03/18 08:46:12;;;;;;;11.70;5.37;;;;;;;;;;5011933;28;20492;-49
2022/03/18 08:48:38;;;;;;;7.47;5.17;;;;;;;;;;5012445;28;20409;-51
2022/03/18 08:51:04;;;;;;;9.80;5.80;;;;;;;;;;5012074;28;20429;-51
2022/03/18 08:53:30;;;;;;;11.00;5.23;;;;;;;;;;5011624;28;20538;-49
2022/03/18 08:55:56;;;;;;;6.13;4.60;;;;;;;;;;5012005;28;20415;-49
2022/03/18 08:58:22;;;;;;;11.00;5.37;;;;;;;;;;5012149;28;20466;-49
2022/03/18 09:00:48;;;;;;;10.07;4.70;;;;;;;;;;5011805;28;20918;-50
2022/03/18 09:03:14;;;;;;;8.97;4.97;;;;;;;;;;5012143;28;20425;-49
2022/03/18 09:05:42;;;;;;;5.13;4.53;;;;;;;;;;5011567;28;20422;-49
2022/03/18 09:08:08;;;;;;;7.70;4.80;;;;;;;;;;5012250;28;20984;-49
2022/03/18 09:10:34;;;;;;;7.97;3.90;;;;;;;;;;5011855;28;20440;-49
2022/03/18 09:13:01;;;;;;;4.47;3.60;;;;;;;;;;5009382;28;20411;-49
2022/03/18 09:15:28;;;;;;;9.90;3.90;;;;;;;;;;5012171;28;20403;-50
2022/03/18 09:17:55;;;;;;;7.70;3.47;;;;;;;;;;5012111;28;20528;-49
2022/03/18 09:20:21;;;;;;;7.93;3.83;;;;;;;;;;5012003;28;20414;-50
2022/03/18 09:22:47;;;;;;;4.50;3.17;;;;;;;;;;5011930;28;20431;-50
2022/03/18 09:25:14;;;;;;;7.07;3.53;;;;;;;;;;5012027;28;20415;-50
2022/03/18 09:27:40;;;;;;;4.80;3.43;;;;;;;;;;5011986;28;20418;-49
2022/03/18 09:30:07;;;;;;;8.70;4.87;;;;;;;;;;5011863;28;20904;-50
2022/03/18 09:32:33;;;;;;;4.93;3.33;;;;;;;;;;5011659;28;20530;-51
2022/03/18 09:34:59;;;;;;;6.70;4.27;;;;;;;;;;5014646;28;20638;-50
2022/03/18 09:37:25;;;;;;;5.93;5.30;;;;;;;;;;5015361;28;20992;-51
2022/03/18 09:39:51;;;;;;;6.20;3.00;;;;;;;;;;5014151;28;20419;-49
2022/03/18 09:42:17;;;;;;;6.13;2.70;;;;;;;;;;5013644;28;20427;-50
2022/03/18 09:44:43;;;;;;;4.20;3.07;;;;;;;;;;5015967;28;20405;-50
2022/03/18 09:47:09;;;;;;;8.83;3.00;;;;;;;;;;5015679;28;20772;-49
2022/03/18 09:49:36;;;;;;;4.23;2.80;;;;;;;;;;5015410;28;20919;-49
2022/03/18 09:52:03;;;;;;;3.40;3.03;;;;;;;;;;5015304;28;20431;-49
2022/03/18 09:54:30;;;;;;;6.23;3.40;;;;;;;;;;5015643;28;20954;-50
2022/03/18 09:56:56;;;;;;;4.10;2.40;;;;;;;;;;5015502;28;20523;-49
2022/03/18 09:59:24;;;;;;;6.10;2.90;;;;;;;;;;5026665;28;20770;-49
2022/03/18 10:01:51;;;;;;;3.20;2.60;;;;;;;;;;5035045;28;21022;-48
2022/03/18 10:04:17;;;;;;;4.77;3.10;;;;;;;;;;5034377;28;20510;-49
2022/03/18 10:06:44;;;;;;;3.30;2.40;;;;;;;;;;5034987;28;20412;-50
2022/03/18 10:09:11;;;;;;;2.03;1.90;;;;;;;;;;5035142;28;20403;-48
2022/03/18 10:11:37;;;;;;;2.43;2.23;;;;;;;;;;5034890;28;20431;-50
2022/03/18 10:14:07;;;;;;;4.10;2.60;;;;;;;;;;5034911;28;20415;-48
2022/03/18 10:16:34;;;;;;;3.73;2.73;;;;;;;;;;5034956;28;20953;-49
2022/03/18 10:19:01;;;;;;;3.30;2.90;;;;;;;;;;5034918;28;20412;-51
2022/03/18 10:21:27;;;;;;;7.13;3.40;;;;;;;;;;5034492;28;20922;-49
2022/03/18 10:24:11;;;;;;;5.33;3.43;;;;;;;;;;5034821;28;20403;-49
2022/03/18 10:26:38;;;;;;;4.60;3.07;;;;;;;;;;5034900;28;20415;-49
2022/03/18 10:29:05;;;;;;;4.60;4.17;;;;;;;;;;5034657;28;20408;-49
2022/03/18 10:31:31;;;;;;;5.07;3.33;;;;;;;;;;5034428;28;20943;-48
2022/03/18 10:39:30;;;;;;;5.07;2.87;;;;;;;;;;5023545;28;20432;-50
2022/03/18 10:41:57;;;;;;;3.00;2.30;;;;;;;;;;5014452;28;20425;-51
2022/03/18 10:44:23;;;;;;;3.83;2.70;;;;;;;;;;5014306;28;20399;-49
2022/03/18 10:46:50;;;;;;;2.80;2.30;;;;;;;;;;5013644;28;20758;-50
2022/03/18 10:49:17;;;;;;;2.43;2.23;;;;;;;;;;5014370;28;20638;-50
2022/03/18 10:51:43;;;;;;;3.80;2.87;;;;;;;;;;5014364;28;20846;-50
2022/03/18 10:54:09;;;;;;;3.77;2.70;;;;;;;;;;5014082;28;20422;-50
2022/03/18 10:57:07;;;;;;;4.60;3.03;;;;;;;;;;5014182;28;20971;-49
2022/03/18 10:59:35;;;;;;;7.27;3.43;;;;;;;;;;4980651;28;20415;-51
2022/03/18 11:02:01;;;;;;;4.33;3.63;;;;;;;;;;5013971;28;20435;-50
2022/03/18 11:04:27;;;;;;;5.23;3.03;;;;;;;;;;5013791;28;20859;-52
2022/03/18 11:12:31;;;;;;;6.30;3.23;;;;;;;;;;5005451;28;21061;-50
2022/03/18 11:14:59;;;;;;;3.40;2.70;;;;;;;;;;5011693;28;20466;-49
2022/03/18 11:17:25;;;;;;;5.70;3.10;;;;;;;;;;5008024;28;20520;-50
2022/03/18 11:19:53;;;;;;;6.37;3.27;;;;;;;;;;5013593;28;20545;-50
2022/03/18 11:22:20;;;;;;;5.00;3.33;;;;;;;;;;5013736;28;20502;-50
2022/03/18 11:24:47;;;;;;;6.00;3.20;;;;;;;;;;4996101;28;20795;-50
2022/03/18 11:27:13;;;;;;;7.93;3.40;;;;;;;;;;5013845;28;20973;-51
2022/03/18 11:29:40;;;;;;;4.87;3.60;;;;;;;;;;5013603;28;20411;-51
2022/03/18 11:32:12;;;;;;;8.37;3.30;;;;;;;;;;5013651;28;20426;-50
2022/03/18 11:34:57;;;;;;;6.67;3.43;;;;;;;;;;5013684;28;20403;-50
2022/03/18 11:37:25;;;;;;;4.73;2.90;;;;;;;;;;5013565;28;20454;-50
2022/03/18 11:39:51;;;;;;;8.73;3.10;;;;;;;;;;5013334;28;20478;-50
2022/03/18 11:42:18;;;;;;;4.93;3.70;;;;;;;;;;5013316;28;20427;-51
2022/03/18 11:44:52;;;;;;;4.70;3.30;;;;;;;;;;5013367;28;20399;-49
2022/03/18 11:47:20;;;;;;;3.70;3.40;;;;;;;;;;5010614;28;20470;-50
2022/03/18 11:49:47;;;;;;;7.57;3.70;;;;;;;;;;5011904;28;20511;-50
2022/03/18 11:52:13;;;;;;;5.00;4.20;;;;;;;;;;5012455;28;20442;-50
2022/03/18 11:54:52;;;;;;;4.50;4.00;;;;;;;;;;5012557;28;20943;-49
2022/03/18 11:57:31;;;;;;;17.83;10.23;;;;;;;;;;5009884;28;20903;-51
2022/03/18 12:00:00;;;;;;;6.20;5.20;;;;;;;;;;5005778;28;20419;-50
2022/03/18 12:02:35;;;;;;;8.77;6.23;;;;;;;;;;5012743;28;20454;-51
2022/03/18 12:05:02;;;;;;;8.17;6.10;;;;;;;;;;5009253;28;20419;-50
2022/03/18 12:07:47;;;;;;;5.77;4.77;;;;;;;;;;4985343;28;20801;-50
2022/03/18 12:10:15;;;;;;;8.87;4.30;;;;;;;;;;5001292;28;20412;-49
2022/03/18 12:12:42;;;;;;;7.17;5.00;;;;;;;;;;4993385;28;20424;-51
2022/03/18 12:15:15;;;;;;;5.70;4.83;;;;;;;;;;5011925;28;20407;-49
2022/03/18 12:17:42;;;;;;;6.50;4.23;;;;;;;;;;5006627;28;20462;-52
2022/03/18 12:20:09;;;;;;;8.70;4.40;;;;;;;;;;5012333;28;20756;-50
2022/03/18 12:22:39;;;;;;;4.07;3.67;;;;;;;;;;5012651;28;20458;-51
2022/03/18 12:25:08;;;;;;;5.77;3.80;;;;;;;;;;5012884;28;20407;-49
2022/03/18 12:27:36;;;;;;;6.93;4.00;;;;;;;;;;5012258;28;20748;-50
2022/03/18 12:30:04;;;;;;;3.87;3.40;;;;;;;;;;5012243;28;20418;-51
2022/03/18 12:32:30;;;;;;;5.80;4.10;;;;;;;;;;5012401;28;20522;-51
2022/03/18 12:34:56;;;;;;;3.77;3.03;;;;;;;;;;5027843;28;20576;-50
2022/03/18 12:37:30;;;;;;;4.30;3.03;;;;;;;;;;5018978;28;20466;-50
2022/03/18 12:40:13;;;;;;;5.67;3.63;;;;;;;;;;5012431;28;20403;-49
2022/03/18 12:42:55;;;;;;;7.50;3.33;;;;;;;;;;5012237;28;20790;-50
2022/03/18 12:45:25;;;;;;;4.60;3.53;;;;;;;;;;5012645;28;20455;-50
2022/03/18 12:47:52;;;;;;;6.33;3.20;;;;;;;;;;5010545;28;20786;-50
2022/03/18 12:50:18;;;;;;;6.73;3.60;;;;;;;;;;5010483;28;20491;-51
2022/03/18 12:52:44;;;;;;;3.33;2.77;;;;;;;;;;5012174;28;20447;-50
2022/03/18 12:55:12;;;;;;;3.90;3.27;;;;;;;;;;5012284;28;20947;-51
2022/03/18 12:57:44;;;;;;;5.70;2.80;;;;;;;;;;5012150;28;20451;-52
2022/03/18 13:00:27;;;;;;;4.60;3.50;;;;;;;;;;5010525;28;20440;-50
2022/03/18 13:02:53;;;;;;;3.10;2.80;;;;;;;;;;5012224;28;20806;-50
2022/03/18 13:05:19;;;;;;;4.53;3.30;;;;;;;;;;5012293;28;20489;-50
2022/03/18 13:07:46;;;;;;;4.30;3.63;;;;;;;;;;5012043;28;20432;-50
2022/03/18 13:10:13;;;;;;;7.00;4.27;;;;;;;;;;5011658;28;20407;-49
2022/03/18 13:12:39;;;;;;;3.60;3.27;;;;;;;;;;5011876;28;20428;-50
2022/03/18 13:15:15;;;;;;;4.90;3.27;;;;;;;;;;5012076;28;20499;-51
2022/03/18 13:17:42;;;;;;;4.23;3.83;;;;;;;;;;5011602;28;20467;-51
2022/03/18 13:20:20;;;;;;;3.70;3.00;;;;;;;;;;5011071;28;20422;-49
2022/03/18 13:22:46;;;;;;;5.00;3.37;;;;;;;;;;5010246;28;20985;-49
2022/03/18 13:25:13;;;;;;;3.63;3.10;;;;;;;;;;4993151;28;20914;-49
2022/03/18 13:27:39;;;;;;;4.37;3.20;;;;;;;;;;4993423;28;20428;-51
2022/03/18 13:32:56;;;;;;;4.33;3.27;;;;;;;;;;5021721;28;20521;-50
2022/03/18 13:35:23;;;;;;;4.20;3.20;;;;;;;;;;5011369;28;20429;-50
2022/03/18 13:38:04;;;;;;;5.63;3.30;;;;;;;;;;5011361;28;20469;-49
2022/03/18 13:40:31;;;;;;;3.60;3.03;;;;;;;;;;5011098;28;20529;-50
2022/03/18 13:43:01;;;;;;;4.03;3.63;;;;;;;;;;5011635;28;20429;-50
2022/03/18 13:45:28;;;;;;;6.97;5.60;;;;;;;;;;5012976;28;20426;-51
2022/03/18 13:47:54;;;;;;;5.03;3.20;;;;;;;;;;5014927;28;20440;-49
2022/03/18 13:50:20;;;;;;;5.83;3.93;;;;;;;;;;5011619;28;20994;-50
2022/03/18 13:52:48;;;;;;;5.57;3.40;;;;;;;;;;5011621;28;20780;-52
2022/03/18 13:55:30;;;;;;;10.73;3.60;;;;;;;;;;5011521;28;20419;-51
2022/03/18 13:57:57;;;;;;;5.73;3.93;;;;;;;;;;5011166;28;20512;-52
2022/03/18 14:00:27;;;;;;;5.40;3.90;;;;;;;;;;5011295;28;20406;-50
2022/03/18 14:03:12;;;;;;;7.67;3.73;;;;;;;;;;5005571;28;20419;-50
2022/03/18 14:05:38;;;;;;;4.60;3.87;;;;;;;;;;5002257;28;20403;-49
2022/03/18 14:08:06;;;;;;;4.33;3.93;;;;;;;;;;5011619;28;20405;-49
2022/03/18 14:10:39;;;;;;;4.87;3.60;;;;;;;;;;5010245;28;20469;-50
2022/03/18 14:13:08;;;;;;;5.57;3.80;;;;;;;;;;5011429;28;20443;-50
2022/03/18 14:15:36;;;;;;;4.80;3.50;;;;;;;;;;5013766;28;20470;-50
2022/03/18 14:18:03;;;;;;;7.03;4.00;;;;;;;;;;5010427;28;20464;-49
2022/03/18 14:20:30;;;;;;;4.07;3.60;;;;;;;;;;5012274;28;20423;-52
2022/03/18 14:22:57;;;;;;;6.97;4.47;;;;;;;;;;5014001;28;20407;-50
2022/03/18 14:25:28;;;;;;;6.20;4.13;;;;;;;;;;5014634;28;20394;-51
2022/03/18 14:27:55;;;;;;;5.77;4.00;;;;;;;;;;5012029;28;20449;-52
2022/03/18 14:30:23;;;;;;;5.67;4.43;;;;;;;;;;5010659;28;20403;-50
2022/03/18 14:32:59;;;;;;;5.37;4.87;;;;;;;;;;5008636;28;20470;-49
2022/03/18 14:35:25;;;;;;;9.07;5.80;;;;;;;;;;5012608;28;20426;-51
2022/03/18 14:37:51;;;;;;;5.87;4.37;;;;;;;;;;5023137;28;20569;-51
2022/03/18 14:40:18;;;;;;;11.47;5.90;;;;;;;;;;5014486;28;20421;-51
2022/03/18 14:42:45;;;;;;;5.70;4.40;;;;;;;;;;5014479;28;20433;-51
2022/03/18 14:45:12;;;;;;;5.23;4.40;;;;;;;;;;5014644;28;20409;-50
2022/03/18 14:47:38;;;;;;;5.93;4.30;;;;;;;;;;5014712;28;20473;-50
2022/03/18 14:50:04;;;;;;;5.50;4.80;;;;;;;;;;5014249;28;20879;-52
2022/03/18 14:52:30;;;;;;;6.77;4.50;;;;;;;;;;5014745;28;20513;-51
2022/03/18 14:57:41;;;;;;;8.33;5.70;;;;;;;;;;5014430;28;20477;-50
2022/03/18 15:00:07;;;;;;;7.20;5.00;;;;;;;;;;5014336;28;20895;-50
2022/03/18 15:02:33;;;;;;;9.13;5.50;;;;;;;;;;5014198;28;20492;-51
2022/03/18 15:05:01;;;;;;;6.50;4.80;;;;;;;;;;5014037;28;20807;-51